Humboldt, Illinois
Current Conditions -  °F | °C
As of 9:53 AM on Saturday 20 Dec 2014 (Local Time) from KMTO Reporting Station
Overcast Overcast  
Wind Chill: 25°   Ceiling: 5000
Heat Index: 31°   Visibility: 10mi
Dew Point: 26°   Wind: 6mph
Humidity: 82%   Direction: 150°SSE
Pressure: 30.3"   Gusts: NA
Location:  39.6°N, 88.32°W
Report Text: KMTO 201553Z AUTO 15005KT 10SM BKN050 OVC065 M01/M03 A3030 RMK AO2 SLP269 T10061033
Loading
Personal Weather Stations






























Interactive Weather Map New forecast layout! Learn more

10-Day Weather Forecast

Advertisements
Track Severe Weather on mobile